NCAR-RAP Real-Time Weather Data

Output produced by METARs form (25 August 2019  22:30 UTC)
found at http://weather.rap.ucar.edu/surface/
 
RJBB 252200Z 10003KT 070V140 9999 FEW015 24/21 Q1013 NOSIG
 
 
RJBE 252200Z 06004KT 9999 FEW015 23/21 Q1013
 
 
RJOA 252200Z 29004KT 9999 BCFG FEW000 BKN090 21/18 Q1015
 
RJOB 252200Z 02003KT 350V060 9999 PRFG FEW000 SCT/// 21/19 Q1014
 
RJOC 252200Z 15007KT 9999 FEW008 SCT080 21/19 Q1014
 
RJOH 252200Z 19004KT 9999 FEW005 22/20 Q1014
 
RJOI 252155Z 30004KT 9999 SCT015 BKN150 23/21 A2995 RMK SLP142 T02280206
 
RJOK 252200Z 35007KT 9999 FEW010 BKN020 BKN100 23/18 Q1013
 
RJOM 252200Z 13006KT 9999 FEW020 SCT110 BKN180 22/20 Q1013
 
RJOO 252200Z 32005KT 9999 FEW003 23/21 Q1013 RMK 1ST003 A2994
 
RJOR 252200Z 14007KT 9999 FEW040 22/19 Q1014
 
RJOT 252200Z 13004KT 9999 FEW010 SCT080 22/21 Q1014
 
 
 
RJDC 252200Z 23004KT 9999 FEW007 SCT015 BKN025 23/18 Q1014
 
 
 
RJFF 252200Z 15007KT 9999 -RA FEW008 SCT060 BKN090 18/18 Q1014 TEMPO 4000 -SHRA BR RMK 1ST008 3SC060 6AC090 A2995
 
 
RJFK 252200Z VRB02KT 7000 -SHRA BCFG FEW008 BKN010 BKN015 23/23 Q1013 RMK 1ST008 5CU010 7CU015 A2994 2000N FG N-NE
 
RJFO 252200Z 23006KT 9999 -SHRA FEW010 SCT035 BKN050 22/21 Q1013
 
RJFR 252200Z VRB01KT 9999 FEW012 BKN020 BKN060 24/20 Q1014
 
RJFS 252200Z 04008KT 9999 VCSH FEW010 BKN040 19/18 Q1014
 
RJFT 252220Z 04003KT 4000 -SHRA BR BCFG FEW001 BKN030 BKN045 19/19 Q1014 RMK 1ST001 5CU030 6SC045 A2997 FG ALL QUAD
 
RJFU 252200Z 01003KT 310V060 9999 -SHRA FEW007 SCT020 BKN030 21/20 Q1014
 
RJFM 252200Z 32003KT 280V360 7000 -SHRA FEW005 SCT010 BKN015 24/22 Q1013